createdAt,value
2023-01-28T06:18:28.132Z,1021.68
2023-01-28T06:28:28.066Z,1021.71
2023-01-28T06:38:28.002Z,1021.73
2023-01-28T06:48:27.986Z,1021.69
2023-01-28T06:58:28.085Z,1021.70
2023-01-28T07:08:28.004Z,1021.72
2023-01-28T07:18:28.004Z,1021.63
2023-01-28T07:28:28.115Z,1021.69
2023-01-28T07:38:28.142Z,1021.82
2023-01-28T07:48:28.224Z,1021.91
2023-01-28T07:58:28.149Z,1022.01
2023-01-28T08:08:28.118Z,1021.90
2023-01-28T08:18:28.186Z,1022.07
2023-01-28T08:28:28.103Z,1022.26
2023-01-28T08:38:28.248Z,1022.32
2023-01-28T08:48:28.524Z,1022.46
2023-01-28T08:58:28.519Z,1022.57
2023-01-28T09:08:28.641Z,1022.60
2023-01-28T09:18:28.777Z,1022.81
2023-01-28T09:28:28.529Z,1023.00
2023-01-28T09:38:28.490Z,1023.02
2023-01-28T09:48:28.560Z,1023.19
2023-01-28T09:58:28.517Z,1022.99
2023-01-28T10:08:28.591Z,1023.21
2023-01-28T10:18:28.545Z,1023.09
2023-01-28T10:28:28.515Z,1022.96
2023-01-28T10:38:28.663Z,1022.94
2023-01-28T10:48:28.558Z,1023.01
2023-01-28T10:58:28.471Z,1022.92
2023-01-28T11:08:28.550Z,1023.00
2023-01-28T11:18:28.505Z,1023.00
2023-01-28T11:28:28.434Z,1022.98
2023-01-28T11:38:28.405Z,1022.92
2023-01-28T11:48:28.382Z,1022.54
2023-01-28T11:58:29.527Z,1022.56
2023-01-28T12:08:28.505Z,1022.38
2023-01-28T12:18:28.518Z,1022.29
2023-01-28T12:28:28.517Z,1021.85
2023-01-28T12:38:28.527Z,1021.36
2023-01-28T12:48:28.554Z,1021.17
2023-01-28T12:58:28.568Z,1021.11
2023-01-28T13:08:29.579Z,1021.26
2023-01-28T13:18:28.544Z,1021.32
2023-01-28T13:28:28.598Z,1021.43
2023-01-28T13:38:28.652Z,1021.52
2023-01-28T13:48:28.632Z,1021.78
2023-01-28T13:58:28.569Z,1021.71
2023-01-28T14:08:28.594Z,1021.57
2023-01-28T14:18:28.605Z,1021.40
2023-01-28T14:28:28.735Z,1020.96
2023-01-28T14:38:28.676Z,1021.29
2023-01-28T14:48:28.694Z,1021.60
2023-01-28T14:58:28.651Z,1021.45
2023-01-28T15:08:28.641Z,1021.71
2023-01-28T15:18:28.759Z,1021.84
2023-01-28T15:28:28.694Z,1021.87
2023-01-28T15:38:28.692Z,1021.82
2023-01-28T15:48:28.720Z,1021.82
2023-01-28T15:58:28.727Z,1022.12
2023-01-28T16:08:28.757Z,1022.16
2023-01-28T16:18:28.872Z,1022.55
2023-01-28T16:28:28.796Z,1022.43
2023-01-28T16:38:28.736Z,1022.28
2023-01-28T16:48:28.803Z,1021.86
2023-01-28T16:58:28.866Z,1022.06
2023-01-28T17:08:28.863Z,1022.10
2023-01-28T17:18:28.954Z,1022.16
2023-01-28T17:28:28.720Z,1022.12
2023-01-28T17:38:28.881Z,1022.24
2023-01-28T17:48:28.809Z,1022.11
2023-01-28T17:58:28.697Z,1022.20
2023-01-28T18:08:28.866Z,1022.26
2023-01-28T18:18:28.735Z,1022.48
2023-01-28T18:28:28.653Z,1022.47
2023-01-28T18:38:28.848Z,1022.41
2023-01-28T18:48:28.644Z,1022.24
2023-01-28T18:58:28.778Z,1022.37
2023-01-28T19:08:28.763Z,1022.61
2023-01-28T19:18:28.895Z,1022.74
